sensor_id;sensor_type;location;lat;lon;timestamp;P1;durP1;ratioP1;P2;durP2;ratioP2
42864;SDS011;28511;42.680;23.252;2023-02-28T00:00:10;9.82;;;4.63;;
42864;SDS011;28511;42.680;23.252;2023-02-28T00:02:39;7.03;;;4.93;;
42864;SDS011;28511;42.680;23.252;2023-02-28T00:05:05;13.90;;;5.50;;
42864;SDS011;28511;42.680;23.252;2023-02-28T00:07:31;12.65;;;4.43;;
42864;SDS011;28511;42.680;23.252;2023-02-28T00:09:56;14.02;;;6.68;;
42864;SDS011;28511;42.680;23.252;2023-02-28T00:12:21;9.75;;;4.97;;
42864;SDS011;28511;42.680;23.252;2023-02-28T00:14:47;11.18;;;5.20;;
42864;SDS011;28511;42.680;23.252;2023-02-28T00:17:12;12.82;;;6.55;;
42864;SDS011;28511;42.680;23.252;2023-02-28T00:19:37;15.33;;;5.73;;
42864;SDS011;28511;42.680;23.252;2023-02-28T00:22:02;10.35;;;4.38;;
42864;SDS011;28511;42.680;23.252;2023-02-28T00:24:28;10.68;;;3.88;;
42864;SDS011;28511;42.680;23.252;2023-02-28T00:26:53;8.80;;;5.05;;
42864;SDS011;28511;42.680;23.252;2023-02-28T00:29:18;12.88;;;5.07;;
42864;SDS011;28511;42.680;23.252;2023-02-28T00:31:43;11.27;;;3.78;;
42864;SDS011;28511;42.680;23.252;2023-02-28T00:34:09;8.82;;;4.85;;
42864;SDS011;28511;42.680;23.252;2023-02-28T00:36:34;13.18;;;5.57;;
42864;SDS011;28511;42.680;23.252;2023-02-28T00:38:59;12.93;;;6.50;;
42864;SDS011;28511;42.680;23.252;2023-02-28T00:41:24;11.75;;;3.63;;
42864;SDS011;28511;42.680;23.252;2023-02-28T00:43:50;8.98;;;4.72;;
42864;SDS011;28511;42.680;23.252;2023-02-28T00:46:15;9.90;;;5.18;;
42864;SDS011;28511;42.680;23.252;2023-02-28T00:48:40;11.00;;;5.45;;
42864;SDS011;28511;42.680;23.252;2023-02-28T00:51:05;14.15;;;6.18;;
42864;SDS011;28511;42.680;23.252;2023-02-28T00:53:31;14.10;;;5.32;;
42864;SDS011;28511;42.680;23.252;2023-02-28T00:55:57;17.17;;;7.50;;
42864;SDS011;28511;42.680;23.252;2023-02-28T00:58:23;12.25;;;6.40;;
42864;SDS011;28511;42.680;23.252;2023-02-28T01:00:48;18.67;;;6.93;;
42864;SDS011;28511;42.680;23.252;2023-02-28T01:03:14;13.15;;;5.57;;
42864;SDS011;28511;42.680;23.252;2023-02-28T01:05:41;15.23;;;7.70;;
42864;SDS011;28511;42.680;23.252;2023-02-28T01:08:06;18.80;;;5.80;;
42864;SDS011;28511;42.680;23.252;2023-02-28T01:10:31;22.08;;;9.38;;
42864;SDS011;28511;42.680;23.252;2023-02-28T01:12:57;16.27;;;5.63;;
42864;SDS011;28511;42.680;23.252;2023-02-28T01:15:22;16.10;;;7.50;;
42864;SDS011;28511;42.680;23.252;2023-02-28T01:17:47;17.10;;;7.90;;
42864;SDS011;28511;42.680;23.252;2023-02-28T01:20:13;12.70;;;5.82;;
42864;SDS011;28511;42.680;23.252;2023-02-28T01:22:38;18.95;;;7.65;;
42864;SDS011;28511;42.680;23.252;2023-02-28T01:25:03;15.67;;;7.07;;
42864;SDS011;28511;42.680;23.252;2023-02-28T01:27:29;19.30;;;7.80;;
42864;SDS011;28511;42.680;23.252;2023-02-28T01:29:54;9.68;;;4.68;;
42864;SDS011;28511;42.680;23.252;2023-02-28T01:32:19;17.10;;;7.22;;
42864;SDS011;28511;42.680;23.252;2023-02-28T01:34:45;26.92;;;7.95;;
42864;SDS011;28511;42.680;23.252;2023-02-28T01:37:10;20.58;;;7.22;;
42864;SDS011;28511;42.680;23.252;2023-02-28T01:39:35;24.43;;;8.17;;
42864;SDS011;28511;42.680;23.252;2023-02-28T01:42:00;21.52;;;7.70;;
42864;SDS011;28511;42.680;23.252;2023-02-28T01:47:10;24.00;;;8.63;;
42864;SDS011;28511;42.680;23.252;2023-02-28T01:49:35;18.92;;;8.13;;
42864;SDS011;28511;42.680;23.252;2023-02-28T01:52:02;23.55;;;8.32;;
42864;SDS011;28511;42.680;23.252;2023-02-28T01:54:29;14.07;;;6.18;;
42864;SDS011;28511;42.680;23.252;2023-02-28T01:57:00;16.05;;;5.53;;
42864;SDS011;28511;42.680;23.252;2023-02-28T01:59:30;16.70;;;7.97;;
42864;SDS011;28511;42.680;23.252;2023-02-28T02:01:57;12.85;;;5.00;;
42864;SDS011;28511;42.680;23.252;2023-02-28T02:04:23;15.77;;;7.18;;
42864;SDS011;28511;42.680;23.252;2023-02-28T02:06:50;30.00;;;6.43;;
42864;SDS011;28511;42.680;23.252;2023-02-28T02:09:15;24.92;;;7.30;;
42864;SDS011;28511;42.680;23.252;2023-02-28T02:11:41;23.27;;;9.20;;
42864;SDS011;28511;42.680;23.252;2023-02-28T02:32:09;17.05;;;7.00;;
42864;SDS011;28511;42.680;23.252;2023-02-28T02:37:25;20.98;;;7.70;;
42864;SDS011;28511;42.680;23.252;2023-02-28T02:45:12;26.07;;;8.57;;
42864;SDS011;28511;42.680;23.252;2023-02-28T02:47:40;24.45;;;12.00;;
42864;SDS011;28511;42.680;23.252;2023-02-28T02:50:06;25.48;;;8.13;;
42864;SDS011;28511;42.680;23.252;2023-02-28T02:52:37;19.17;;;8.95;;
42864;SDS011;28511;42.680;23.252;2023-02-28T02:55:03;20.92;;;8.10;;
42864;SDS011;28511;42.680;23.252;2023-02-28T02:57:32;20.70;;;7.35;;
42864;SDS011;28511;42.680;23.252;2023-02-28T02:59:59;16.95;;;6.60;;
42864;SDS011;28511;42.680;23.252;2023-02-28T03:02:25;19.30;;;6.40;;
42864;SDS011;28511;42.680;23.252;2023-02-28T03:04:52;20.70;;;7.00;;
42864;SDS011;28511;42.680;23.252;2023-02-28T03:07:18;19.15;;;8.38;;
42864;SDS011;28511;42.680;23.252;2023-02-28T03:09:56;19.80;;;9.70;;
42864;SDS011;28511;42.680;23.252;2023-02-28T03:12:23;20.85;;;9.55;;
42864;SDS011;28511;42.680;23.252;2023-02-28T03:23:38;14.50;;;6.43;;
42864;SDS011;28511;42.680;23.252;2023-02-28T03:30:52;15.32;;;6.15;;
42864;SDS011;28511;42.680;23.252;2023-02-28T03:33:35;12.27;;;5.97;;
42864;SDS011;28511;42.680;23.252;2023-02-28T03:36:05;16.85;;;6.30;;
42864;SDS011;28511;42.680;23.252;2023-02-28T03:41:10;29.70;;;7.93;;
42864;SDS011;28511;42.680;23.252;2023-02-28T03:43:39;13.65;;;6.65;;
42864;SDS011;28511;42.680;23.252;2023-02-28T03:46:07;9.77;;;5.85;;
42864;SDS011;28511;42.680;23.252;2023-02-28T03:48:39;14.75;;;6.35;;
42864;SDS011;28511;42.680;23.252;2023-02-28T03:51:05;17.08;;;8.85;;
42864;SDS011;28511;42.680;23.252;2023-02-28T03:53:34;19.83;;;8.25;;
42864;SDS011;28511;42.680;23.252;2023-02-28T04:01:14;27.33;;;7.57;;
42864;SDS011;28511;42.680;23.252;2023-02-28T04:03:40;24.63;;;9.35;;
42864;SDS011;28511;42.680;23.252;2023-02-28T04:06:07;11.47;;;5.17;;
42864;SDS011;28511;42.680;23.252;2023-02-28T04:08:33;22.40;;;7.60;;
42864;SDS011;28511;42.680;23.252;2023-02-28T04:11:03;26.70;;;9.88;;
42864;SDS011;28511;42.680;23.252;2023-02-28T04:13:29;24.55;;;8.65;;
42864;SDS011;28511;42.680;23.252;2023-02-28T04:15:55;34.35;;;11.63;;
42864;SDS011;28511;42.680;23.252;2023-02-28T04:18:20;24.27;;;10.40;;
42864;SDS011;28511;42.680;23.252;2023-02-28T04:20:45;23.08;;;9.43;;
42864;SDS011;28511;42.680;23.252;2023-02-28T04:23:10;18.73;;;7.75;;
42864;SDS011;28511;42.680;23.252;2023-02-28T04:25:36;27.33;;;7.40;;
42864;SDS011;28511;42.680;23.252;2023-02-28T04:28:01;29.95;;;9.55;;
42864;SDS011;28511;42.680;23.252;2023-02-28T04:30:26;15.88;;;8.32;;
42864;SDS011;28511;42.680;23.252;2023-02-28T04:32:51;26.15;;;8.57;;
42864;SDS011;28511;42.680;23.252;2023-02-28T04:35:17;27.67;;;10.07;;
42864;SDS011;28511;42.680;23.252;2023-02-28T04:37:42;23.20;;;9.33;;
42864;SDS011;28511;42.680;23.252;2023-02-28T04:40:07;16.70;;;7.93;;
42864;SDS011;28511;42.680;23.252;2023-02-28T04:42:33;25.38;;;8.77;;
42864;SDS011;28511;42.680;23.252;2023-02-28T04:45:03;25.88;;;10.43;;
42864;SDS011;28511;42.680;23.252;2023-02-28T04:47:29;25.83;;;8.63;;
42864;SDS011;28511;42.680;23.252;2023-02-28T04:49:54;23.55;;;11.85;;
42864;SDS011;28511;42.680;23.252;2023-02-28T04:52:20;30.45;;;7.95;;
42864;SDS011;28511;42.680;23.252;2023-02-28T04:54:45;29.30;;;9.05;;
42864;SDS011;28511;42.680;23.252;2023-02-28T04:57:10;23.10;;;8.55;;
42864;SDS011;28511;42.680;23.252;2023-02-28T04:59:35;25.20;;;9.63;;
42864;SDS011;28511;42.680;23.252;2023-02-28T05:02:01;21.80;;;8.98;;
42864;SDS011;28511;42.680;23.252;2023-02-28T05:04:31;21.73;;;8.45;;
42864;SDS011;28511;42.680;23.252;2023-02-28T05:06:59;28.88;;;9.85;;
42864;SDS011;28511;42.680;23.252;2023-02-28T05:09:24;24.13;;;10.90;;
42864;SDS011;28511;42.680;23.252;2023-02-28T05:11:49;25.58;;;8.77;;
42864;SDS011;28511;42.680;23.252;2023-02-28T05:14:14;17.20;;;7.60;;
42864;SDS011;28511;42.680;23.252;2023-02-28T05:16:40;34.72;;;9.80;;
42864;SDS011;28511;42.680;23.252;2023-02-28T05:19:05;14.02;;;6.40;;
42864;SDS011;28511;42.680;23.252;2023-02-28T05:24:03;24.70;;;9.80;;
42864;SDS011;28511;42.680;23.252;2023-02-28T05:26:29;20.65;;;9.45;;
42864;SDS011;28511;42.680;23.252;2023-02-28T05:28:55;33.28;;;10.75;;
42864;SDS011;28511;42.680;23.252;2023-02-28T05:31:20;21.52;;;9.95;;
42864;SDS011;28511;42.680;23.252;2023-02-28T05:33:46;25.27;;;9.85;;
42864;SDS011;28511;42.680;23.252;2023-02-28T05:36:11;27.13;;;8.73;;
42864;SDS011;28511;42.680;23.252;2023-02-28T05:38:36;23.52;;;9.13;;
42864;SDS011;28511;42.680;23.252;2023-02-28T05:41:05;22.48;;;10.38;;
42864;SDS011;28511;42.680;23.252;2023-02-28T05:43:31;17.35;;;8.18;;
42864;SDS011;28511;42.680;23.252;2023-02-28T05:45:56;25.88;;;10.57;;
42864;SDS011;28511;42.680;23.252;2023-02-28T05:48:21;25.03;;;9.90;;
42864;SDS011;28511;42.680;23.252;2023-02-28T05:50:46;27.17;;;9.30;;
42864;SDS011;28511;42.680;23.252;2023-02-28T05:53:12;17.88;;;9.23;;
42864;SDS011;28511;42.680;23.252;2023-02-28T05:55:44;26.23;;;9.50;;
42864;SDS011;28511;42.680;23.252;2023-02-28T05:58:09;17.48;;;9.55;;
42864;SDS011;28511;42.680;23.252;2023-02-28T06:00:34;21.42;;;8.52;;
42864;SDS011;28511;42.680;23.252;2023-02-28T06:03:00;19.98;;;8.23;;
42864;SDS011;28511;42.680;23.252;2023-02-28T06:05:27;32.35;;;10.25;;
42864;SDS011;28511;42.680;23.252;2023-02-28T06:07:52;23.20;;;9.05;;
42864;SDS011;28511;42.680;23.252;2023-02-28T06:10:18;23.33;;;9.20;;
42864;SDS011;28511;42.680;23.252;2023-02-28T06:12:44;24.55;;;9.25;;
42864;SDS011;28511;42.680;23.252;2023-02-28T06:15:11;25.17;;;9.82;;
42864;SDS011;28511;42.680;23.252;2023-02-28T06:17:37;21.30;;;9.07;;
42864;SDS011;28511;42.680;23.252;2023-02-28T06:20:03;19.23;;;7.63;;
42864;SDS011;28511;42.680;23.252;2023-02-28T06:22:28;25.30;;;8.30;;
42864;SDS011;28511;42.680;23.252;2023-02-28T06:24:54;36.22;;;10.02;;
42864;SDS011;28511;42.680;23.252;2023-02-28T06:27:20;27.38;;;11.50;;
42864;SDS011;28511;42.680;23.252;2023-02-28T06:29:45;18.88;;;8.85;;
42864;SDS011;28511;42.680;23.252;2023-02-28T06:32:10;22.88;;;9.60;;
42864;SDS011;28511;42.680;23.252;2023-02-28T06:34:36;25.50;;;10.75;;
42864;SDS011;28511;42.680;23.252;2023-02-28T06:37:01;19.05;;;7.35;;
42864;SDS011;28511;42.680;23.252;2023-02-28T06:39:27;22.23;;;8.77;;
42864;SDS011;28511;42.680;23.252;2023-02-28T06:41:52;18.58;;;8.43;;
42864;SDS011;28511;42.680;23.252;2023-02-28T06:44:17;21.70;;;10.80;;
42864;SDS011;28511;42.680;23.252;2023-02-28T06:46:43;31.75;;;10.23;;
42864;SDS011;28511;42.680;23.252;2023-02-28T06:49:09;19.35;;;8.00;;
42864;SDS011;28511;42.680;23.252;2023-02-28T06:51:35;23.65;;;10.27;;
42864;SDS011;28511;42.680;23.252;2023-02-28T06:54:01;39.53;;;11.30;;
42864;SDS011;28511;42.680;23.252;2023-02-28T06:56:26;23.20;;;10.65;;
42864;SDS011;28511;42.680;23.252;2023-02-28T06:58:52;27.17;;;10.88;;
42864;SDS011;28511;42.680;23.252;2023-02-28T07:01:21;21.00;;;10.27;;
42864;SDS011;28511;42.680;23.252;2023-02-28T07:03:48;28.20;;;9.57;;
42864;SDS011;28511;42.680;23.252;2023-02-28T07:06:17;26.98;;;10.75;;
42864;SDS011;28511;42.680;23.252;2023-02-28T07:08:42;28.67;;;11.43;;
42864;SDS011;28511;42.680;23.252;2023-02-28T07:11:08;27.58;;;11.70;;
42864;SDS011;28511;42.680;23.252;2023-02-28T07:13:33;29.33;;;10.98;;
42864;SDS011;28511;42.680;23.252;2023-02-28T07:15:59;23.90;;;11.00;;
42864;SDS011;28511;42.680;23.252;2023-02-28T07:18:25;38.38;;;11.63;;
42864;SDS011;28511;42.680;23.252;2023-02-28T07:20:50;23.70;;;10.60;;
42864;SDS011;28511;42.680;23.252;2023-02-28T07:23:16;33.17;;;14.05;;
42864;SDS011;28511;42.680;23.252;2023-02-28T07:25:41;19.75;;;8.20;;
42864;SDS011;28511;42.680;23.252;2023-02-28T07:28:07;25.02;;;10.38;;
42864;SDS011;28511;42.680;23.252;2023-02-28T07:30:32;27.35;;;11.20;;
42864;SDS011;28511;42.680;23.252;2023-02-28T07:32:57;24.38;;;10.75;;
42864;SDS011;28511;42.680;23.252;2023-02-28T07:35:22;30.48;;;11.32;;
42864;SDS011;28511;42.680;23.252;2023-02-28T07:37:48;22.35;;;11.02;;
42864;SDS011;28511;42.680;23.252;2023-02-28T07:40:13;25.17;;;10.60;;
42864;SDS011;28511;42.680;23.252;2023-02-28T07:42:39;26.00;;;12.18;;
42864;SDS011;28511;42.680;23.252;2023-02-28T07:45:05;27.88;;;11.00;;
42864;SDS011;28511;42.680;23.252;2023-02-28T07:47:31;16.58;;;10.38;;
42864;SDS011;28511;42.680;23.252;2023-02-28T07:49:57;23.33;;;9.75;;
42864;SDS011;28511;42.680;23.252;2023-02-28T07:52:22;24.30;;;10.80;;
42864;SDS011;28511;42.680;23.252;2023-02-28T07:54:50;23.35;;;11.05;;
42864;SDS011;28511;42.680;23.252;2023-02-28T07:57:16;33.78;;;12.43;;
42864;SDS011;28511;42.680;23.252;2023-02-28T07:59:41;18.02;;;8.90;;
42864;SDS011;28511;42.680;23.252;2023-02-28T08:02:06;19.40;;;9.38;;
42864;SDS011;28511;42.680;23.252;2023-02-28T08:04:33;24.60;;;10.60;;
42864;SDS011;28511;42.680;23.252;2023-02-28T08:06:58;34.47;;;11.48;;
42864;SDS011;28511;42.680;23.252;2023-02-28T08:09:24;17.90;;;9.63;;
42864;SDS011;28511;42.680;23.252;2023-02-28T08:11:49;23.38;;;10.05;;
42864;SDS011;28511;42.680;23.252;2023-02-28T08:14:14;35.17;;;11.75;;
42864;SDS011;28511;42.680;23.252;2023-02-28T08:16:40;24.10;;;10.43;;
42864;SDS011;28511;42.680;23.252;2023-02-28T08:19:05;29.55;;;10.02;;
42864;SDS011;28511;42.680;23.252;2023-02-28T08:21:32;24.67;;;10.20;;
42864;SDS011;28511;42.680;23.252;2023-02-28T08:23:58;21.90;;;10.48;;
42864;SDS011;28511;42.680;23.252;2023-02-28T08:26:23;18.38;;;10.82;;
42864;SDS011;28511;42.680;23.252;2023-02-28T08:28:48;24.70;;;11.87;;
42864;SDS011;28511;42.680;23.252;2023-02-28T08:31:14;36.55;;;14.18;;
42864;SDS011;28511;42.680;23.252;2023-02-28T08:33:41;27.85;;;11.70;;
42864;SDS011;28511;42.680;23.252;2023-02-28T08:36:07;31.38;;;11.93;;
42864;SDS011;28511;42.680;23.252;2023-02-28T08:38:32;32.97;;;11.27;;
42864;SDS011;28511;42.680;23.252;2023-02-28T08:41:01;25.07;;;9.50;;
42864;SDS011;28511;42.680;23.252;2023-02-28T08:45:53;24.63;;;7.97;;
42864;SDS011;28511;42.680;23.252;2023-02-28T08:48:18;20.80;;;11.77;;
42864;SDS011;28511;42.680;23.252;2023-02-28T08:50:43;16.20;;;9.50;;
42864;SDS011;28511;42.680;23.252;2023-02-28T08:53:09;18.52;;;10.20;;
42864;SDS011;28511;42.680;23.252;2023-02-28T08:55:34;20.25;;;10.55;;
42864;SDS011;28511;42.680;23.252;2023-02-28T08:57:59;24.88;;;13.18;;
42864;SDS011;28511;42.680;23.252;2023-02-28T09:00:26;25.73;;;13.32;;
42864;SDS011;28511;42.680;23.252;2023-02-28T09:02:51;25.10;;;10.95;;
42864;SDS011;28511;42.680;23.252;2023-02-28T09:05:16;19.85;;;12.30;;
42864;SDS011;28511;42.680;23.252;2023-02-28T09:07:42;21.30;;;10.07;;
42864;SDS011;28511;42.680;23.252;2023-02-28T09:10:07;27.20;;;11.93;;
42864;SDS011;28511;42.680;23.252;2023-02-28T09:12:33;22.55;;;10.95;;
42864;SDS011;28511;42.680;23.252;2023-02-28T09:14:59;31.80;;;13.05;;
42864;SDS011;28511;42.680;23.252;2023-02-28T09:17:24;29.00;;;11.33;;
42864;SDS011;28511;42.680;23.252;2023-02-28T09:19:50;19.88;;;10.90;;
42864;SDS011;28511;42.680;23.252;2023-02-28T09:22:15;20.37;;;9.77;;
42864;SDS011;28511;42.680;23.252;2023-02-28T09:24:40;25.58;;;11.30;;
42864;SDS011;28511;42.680;23.252;2023-02-28T09:27:06;19.30;;;9.32;;
42864;SDS011;28511;42.680;23.252;2023-02-28T09:29:32;26.58;;;11.02;;
42864;SDS011;28511;42.680;23.252;2023-02-28T09:31:58;20.40;;;9.35;;
42864;SDS011;28511;42.680;23.252;2023-02-28T09:34:23;22.73;;;11.63;;
42864;SDS011;28511;42.680;23.252;2023-02-28T09:36:49;22.52;;;10.52;;
42864;SDS011;28511;42.680;23.252;2023-02-28T09:39:15;28.13;;;11.30;;
42864;SDS011;28511;42.680;23.252;2023-02-28T09:41:44;18.70;;;9.18;;
42864;SDS011;28511;42.680;23.252;2023-02-28T09:44:36;22.17;;;10.50;;
42864;SDS011;28511;42.680;23.252;2023-02-28T09:47:01;21.23;;;12.45;;
42864;SDS011;28511;42.680;23.252;2023-02-28T09:49:48;29.33;;;11.63;;
42864;SDS011;28511;42.680;23.252;2023-02-28T09:52:15;23.00;;;8.85;;
42864;SDS011;28511;42.680;23.252;2023-02-28T09:54:42;29.73;;;10.50;;
42864;SDS011;28511;42.680;23.252;2023-02-28T09:59:39;26.00;;;11.77;;
42864;SDS011;28511;42.680;23.252;2023-02-28T10:09:45;27.75;;;13.52;;
42864;SDS011;28511;42.680;23.252;2023-02-28T10:12:11;23.65;;;13.13;;
42864;SDS011;28511;42.680;23.252;2023-02-28T10:14:37;28.65;;;13.30;;
42864;SDS011;28511;42.680;23.252;2023-02-28T10:17:04;24.70;;;11.35;;
42864;SDS011;28511;42.680;23.252;2023-02-28T10:22:24;25.52;;;11.20;;
42864;SDS011;28511;42.680;23.252;2023-02-28T10:24:52;19.90;;;9.63;;
42864;SDS011;28511;42.680;23.252;2023-02-28T10:27:19;25.88;;;10.80;;
42864;SDS011;28511;42.680;23.252;2023-02-28T10:29:46;23.67;;;9.63;;
42864;SDS011;28511;42.680;23.252;2023-02-28T10:32:15;30.33;;;12.80;;
42864;SDS011;28511;42.680;23.252;2023-02-28T10:34:41;35.20;;;11.38;;
42864;SDS011;28511;42.680;23.252;2023-02-28T10:37:07;22.27;;;12.35;;
42864;SDS011;28511;42.680;23.252;2023-02-28T10:42:01;20.73;;;9.33;;
42864;SDS011;28511;42.680;23.252;2023-02-28T10:44:26;23.40;;;10.57;;
42864;SDS011;28511;42.680;23.252;2023-02-28T10:46:51;26.75;;;11.70;;
42864;SDS011;28511;42.680;23.252;2023-02-28T10:49:21;22.20;;;11.00;;
42864;SDS011;28511;42.680;23.252;2023-02-28T10:54:18;22.05;;;9.98;;
42864;SDS011;28511;42.680;23.252;2023-02-28T10:56:44;16.05;;;7.85;;
42864;SDS011;28511;42.680;23.252;2023-02-28T10:59:28;13.82;;;6.32;;
42864;SDS011;28511;42.680;23.252;2023-02-28T11:01:54;18.70;;;7.15;;
42864;SDS011;28511;42.680;23.252;2023-02-28T11:06:56;13.55;;;6.53;;
42864;SDS011;28511;42.680;23.252;2023-02-28T11:09:23;11.45;;;4.13;;
42864;SDS011;28511;42.680;23.252;2023-02-28T11:11:50;10.13;;;3.83;;
42864;SDS011;28511;42.680;23.252;2023-02-28T11:14:19;11.40;;;5.57;;
42864;SDS011;28511;42.680;23.252;2023-02-28T11:16:46;9.63;;;4.03;;
42864;SDS011;28511;42.680;23.252;2023-02-28T11:19:45;7.65;;;3.40;;
42864;SDS011;28511;42.680;23.252;2023-02-28T11:22:03;9.43;;;3.58;;
42864;SDS011;28511;42.680;23.252;2023-02-28T11:24:33;15.45;;;4.15;;
42864;SDS011;28511;42.680;23.252;2023-02-28T11:27:00;13.70;;;5.55;;
42864;SDS011;28511;42.680;23.252;2023-02-28T11:29:26;10.60;;;4.13;;
42864;SDS011;28511;42.680;23.252;2023-02-28T11:32:07;10.88;;;4.15;;
42864;SDS011;28511;42.680;23.252;2023-02-28T11:34:36;9.65;;;3.63;;
42864;SDS011;28511;42.680;23.252;2023-02-28T11:37:03;12.13;;;4.82;;
42864;SDS011;28511;42.680;23.252;2023-02-28T11:39:32;16.08;;;4.68;;
42864;SDS011;28511;42.680;23.252;2023-02-28T11:46:59;10.10;;;3.85;;
42864;SDS011;28511;42.680;23.252;2023-02-28T11:55:11;15.65;;;5.90;;
42864;SDS011;28511;42.680;23.252;2023-02-28T12:05:34;8.75;;;3.85;;
42864;SDS011;28511;42.680;23.252;2023-02-28T12:08:06;14.35;;;5.15;;
42864;SDS011;28511;42.680;23.252;2023-02-28T12:13:23;8.73;;;4.13;;
42864;SDS011;28511;42.680;23.252;2023-02-28T12:26:19;9.85;;;5.00;;
42864;SDS011;28511;42.680;23.252;2023-02-28T12:31:39;12.52;;;5.18;;
42864;SDS011;28511;42.680;23.252;2023-02-28T12:34:07;13.02;;;4.95;;
42864;SDS011;28511;42.680;23.252;2023-02-28T12:36:34;14.25;;;7.13;;
42864;SDS011;28511;42.680;23.252;2023-02-28T12:39:02;12.50;;;5.15;;
42864;SDS011;28511;42.680;23.252;2023-02-28T12:41:42;11.65;;;5.43;;
42864;SDS011;28511;42.680;23.252;2023-02-28T12:44:12;13.55;;;5.88;;
42864;SDS011;28511;42.680;23.252;2023-02-28T12:46:43;23.17;;;5.05;;
42864;SDS011;28511;42.680;23.252;2023-02-28T12:51:34;11.43;;;5.78;;
42864;SDS011;28511;42.680;23.252;2023-02-28T12:59:29;9.77;;;4.65;;
42864;SDS011;28511;42.680;23.252;2023-02-28T13:01:57;10.65;;;5.03;;
42864;SDS011;28511;42.680;23.252;2023-02-28T13:04:32;9.95;;;4.60;;
42864;SDS011;28511;42.680;23.252;2023-02-28T13:09:35;13.38;;;4.53;;
42864;SDS011;28511;42.680;23.252;2023-02-28T13:12:01;10.57;;;4.85;;
42864;SDS011;28511;42.680;23.252;2023-02-28T13:14:37;9.93;;;4.35;;
42864;SDS011;28511;42.680;23.252;2023-02-28T13:19:32;13.73;;;5.75;;
42864;SDS011;28511;42.680;23.252;2023-02-28T13:21:58;10.52;;;4.95;;
42864;SDS011;28511;42.680;23.252;2023-02-28T13:39:46;11.48;;;4.97;;
42864;SDS011;28511;42.680;23.252;2023-02-28T13:47:24;7.28;;;4.20;;
42864;SDS011;28511;42.680;23.252;2023-02-28T13:49:52;11.63;;;4.67;;
42864;SDS011;28511;42.680;23.252;2023-02-28T13:52:19;11.00;;;4.50;;
42864;SDS011;28511;42.680;23.252;2023-02-28T14:05:30;8.70;;;4.03;;
42864;SDS011;28511;42.680;23.252;2023-02-28T14:07:57;11.32;;;4.97;;
42864;SDS011;28511;42.680;23.252;2023-02-28T14:10:24;6.57;;;2.95;;
42864;SDS011;28511;42.680;23.252;2023-02-28T14:12:54;8.30;;;3.35;;
42864;SDS011;28511;42.680;23.252;2023-02-28T14:18:19;7.13;;;3.70;;
42864;SDS011;28511;42.680;23.252;2023-02-28T14:20:46;7.75;;;2.92;;
42864;SDS011;28511;42.680;23.252;2023-02-28T14:26:02;8.52;;;4.00;;
42864;SDS011;28511;42.680;23.252;2023-02-28T14:31:07;7.25;;;3.45;;
42864;SDS011;28511;42.680;23.252;2023-02-28T14:36:20;12.60;;;4.40;;
42864;SDS011;28511;42.680;23.252;2023-02-28T14:38:47;12.18;;;4.70;;
42864;SDS011;28511;42.680;23.252;2023-02-28T14:41:24;13.43;;;4.78;;
42864;SDS011;28511;42.680;23.252;2023-02-28T14:43:57;8.48;;;4.57;;
42864;SDS011;28511;42.680;23.252;2023-02-28T14:46:23;8.20;;;4.60;;
42864;SDS011;28511;42.680;23.252;2023-02-28T14:48:49;11.30;;;6.10;;
42864;SDS011;28511;42.680;23.252;2023-02-28T14:51:20;9.10;;;3.40;;
42864;SDS011;28511;42.680;23.252;2023-02-28T14:53:47;12.20;;;5.60;;
42864;SDS011;28511;42.680;23.252;2023-02-28T14:56:21;8.68;;;4.93;;
42864;SDS011;28511;42.680;23.252;2023-02-28T14:58:51;6.38;;;4.03;;
42864;SDS011;28511;42.680;23.252;2023-02-28T15:01:18;7.88;;;4.65;;
42864;SDS011;28511;42.680;23.252;2023-02-28T15:03:44;12.93;;;4.03;;
42864;SDS011;28511;42.680;23.252;2023-02-28T15:06:14;5.03;;;3.17;;
42864;SDS011;28511;42.680;23.252;2023-02-28T15:08:39;8.38;;;5.55;;
42864;SDS011;28511;42.680;23.252;2023-02-28T15:11:05;7.97;;;3.97;;
42864;SDS011;28511;42.680;23.252;2023-02-28T15:13:35;17.15;;;3.95;;
42864;SDS011;28511;42.680;23.252;2023-02-28T15:16:02;7.57;;;3.10;;
42864;SDS011;28511;42.680;23.252;2023-02-28T15:18:42;13.52;;;3.97;;
42864;SDS011;28511;42.680;23.252;2023-02-28T15:21:11;7.10;;;3.58;;
42864;SDS011;28511;42.680;23.252;2023-02-28T15:23:38;9.95;;;3.90;;
42864;SDS011;28511;42.680;23.252;2023-02-28T15:26:05;8.18;;;4.40;;
42864;SDS011;28511;42.680;23.252;2023-02-28T15:28:31;13.70;;;4.63;;
42864;SDS011;28511;42.680;23.252;2023-02-28T15:30:57;10.70;;;3.38;;
42864;SDS011;28511;42.680;23.252;2023-02-28T15:33:24;18.15;;;5.00;;
42864;SDS011;28511;42.680;23.252;2023-02-28T15:35:50;4.90;;;2.50;;
42864;SDS011;28511;42.680;23.252;2023-02-28T15:38:17;8.60;;;3.13;;
42864;SDS011;28511;42.680;23.252;2023-02-28T15:40:44;15.88;;;4.80;;
42864;SDS011;28511;42.680;23.252;2023-02-28T15:45:45;6.38;;;3.10;;
42864;SDS011;28511;42.680;23.252;2023-02-28T15:48:14;5.32;;;2.45;;
42864;SDS011;28511;42.680;23.252;2023-02-28T15:50:40;8.82;;;4.50;;
42864;SDS011;28511;42.680;23.252;2023-02-28T15:53:08;8.13;;;3.67;;
42864;SDS011;28511;42.680;23.252;2023-02-28T15:55:36;11.32;;;3.65;;
42864;SDS011;28511;42.680;23.252;2023-02-28T15:58:02;14.32;;;3.35;;
42864;SDS011;28511;42.680;23.252;2023-02-28T16:00:28;6.15;;;3.67;;
42864;SDS011;28511;42.680;23.252;2023-02-28T16:02:53;11.98;;;4.80;;
42864;SDS011;28511;42.680;23.252;2023-02-28T16:05:20;5.32;;;3.15;;
42864;SDS011;28511;42.680;23.252;2023-02-28T16:07:52;6.72;;;2.85;;
42864;SDS011;28511;42.680;23.252;2023-02-28T16:10:18;5.50;;;2.95;;
42864;SDS011;28511;42.680;23.252;2023-02-28T16:12:43;12.73;;;5.50;;
42864;SDS011;28511;42.680;23.252;2023-02-28T16:15:14;7.40;;;4.53;;
42864;SDS011;28511;42.680;23.252;2023-02-28T16:17:42;5.97;;;2.92;;
42864;SDS011;28511;42.680;23.252;2023-02-28T16:22:59;7.55;;;3.65;;
42864;SDS011;28511;42.680;23.252;2023-02-28T16:25:28;8.50;;;3.88;;
42864;SDS011;28511;42.680;23.252;2023-02-28T16:27:58;6.57;;;3.28;;
42864;SDS011;28511;42.680;23.252;2023-02-28T16:30:26;5.55;;;3.28;;
42864;SDS011;28511;42.680;23.252;2023-02-28T16:32:51;6.57;;;3.53;;
42864;SDS011;28511;42.680;23.252;2023-02-28T16:35:17;7.70;;;3.85;;
42864;SDS011;28511;42.680;23.252;2023-02-28T16:37:43;4.18;;;2.42;;
42864;SDS011;28511;42.680;23.252;2023-02-28T16:40:19;6.85;;;3.72;;
42864;SDS011;28511;42.680;23.252;2023-02-28T16:42:46;6.72;;;2.72;;
42864;SDS011;28511;42.680;23.252;2023-02-28T16:45:15;3.88;;;2.78;;
42864;SDS011;28511;42.680;23.252;2023-02-28T16:47:42;4.85;;;2.47;;
42864;SDS011;28511;42.680;23.252;2023-02-28T16:50:17;5.57;;;3.85;;
42864;SDS011;28511;42.680;23.252;2023-02-28T16:52:43;4.78;;;2.67;;
42864;SDS011;28511;42.680;23.252;2023-02-28T16:55:08;2.22;;;1.70;;
42864;SDS011;28511;42.680;23.252;2023-02-28T16:57:34;7.90;;;4.00;;
42864;SDS011;28511;42.680;23.252;2023-02-28T16:59:59;9.02;;;2.67;;
42864;SDS011;28511;42.680;23.252;2023-02-28T17:02:24;4.70;;;3.28;;
42864;SDS011;28511;42.680;23.252;2023-02-28T17:04:49;4.28;;;2.17;;
42864;SDS011;28511;42.680;23.252;2023-02-28T17:07:15;4.32;;;2.35;;
42864;SDS011;28511;42.680;23.252;2023-02-28T17:09:41;6.85;;;3.58;;